Terminal Aerodrome Forecast
Issued by NWS Wakefield, VA

Home | Current Version | Previous Version | Text Only | Print | Product List | Glossary On
Versions: 1 2 3 4 5 6 7 8 9 10 11 12 13 14 15 16 17 18 19 20
000
FTUS41 KAKQ 281329 AAA
TAFSBY
TAF AMD
KSBY 281329Z 2813/2912 20008KT P6SM BKN015
     FM281530 20008KT P6SM BKN250
     FM282100 17008KT P6SM SCT040
     FM290000 17003KT P6SM SCT040 BKN250=

USA.gov is the U.S. government's official web portal to all federal, state and local government web resources and services.